Terminal Aerodrome Forecast
Issued by NWS Greer, SC

Current Version | Previous Version | Text Only | Print | Product List | Glossary On
Versions: 1 2 3 4 5 6 7 8 9 10 11 12 13 14 15 16 17 18 19 20 21 22
000
FTUS42 KGSP 201700
TAFGSP
TAF
KGSP 201731Z 2018/2118 04012KT P6SM SCT230
     FM202300 04008KT P6SM FEW240
     FM210600 02005KT P6SM FEW250
     FM211700 09003KT P6SM FEW240=

USA.gov is the U.S. government's official web portal to all federal, state and local government web resources and services.